createdAt,value
2017-10-21T00:00:12.742Z,94.10
2017-10-21T00:02:40.610Z,93.90
2017-10-21T00:05:08.478Z,93.80
2017-10-21T00:07:36.345Z,93.80
2017-10-21T00:10:04.211Z,93.70
2017-10-21T00:12:32.080Z,93.60
2017-10-21T00:14:59.893Z,93.60
2017-10-21T00:17:28.531Z,94.50
2017-10-21T00:19:56.397Z,95.00
2017-10-21T00:22:24.270Z,94.90
2017-10-21T00:24:52.131Z,94.70
2017-10-21T00:27:20.002Z,94.60
2017-10-21T00:29:47.865Z,95.40
2017-10-21T00:32:15.734Z,96.10
2017-10-21T00:34:43.602Z,95.40
2017-10-21T00:37:11.471Z,94.90
2017-10-21T00:39:39.336Z,94.50
2017-10-21T00:42:07.207Z,94.70
2017-10-21T00:44:35.070Z,95.70
2017-10-21T00:47:02.938Z,96.80
2017-10-21T00:49:30.805Z,97.30
2017-10-21T00:51:58.672Z,97.50
2017-10-21T00:54:26.540Z,97.20
2017-10-21T00:56:54.408Z,96.70
2017-10-21T00:59:22.274Z,96.40
2017-10-21T01:01:50.143Z,96.30
2017-10-21T01:04:18.008Z,96.40
2017-10-21T01:06:45.877Z,96.00
2017-10-21T01:09:13.744Z,95.80
2017-10-21T01:11:41.611Z,95.30
2017-10-21T01:14:09.478Z,95.20
2017-10-21T01:16:37.346Z,95.20
2017-10-21T01:19:05.316Z,95.00
2017-10-21T01:21:33.183Z,94.90
2017-10-21T01:24:01.050Z,94.90
2017-10-21T01:26:28.917Z,94.80
2017-10-21T01:28:56.785Z,94.70
2017-10-21T01:31:24.652Z,94.80
2017-10-21T01:33:52.519Z,94.80
2017-10-21T01:36:20.386Z,94.60
2017-10-21T01:38:48.466Z,94.60
2017-10-21T01:41:16.326Z,94.70
2017-10-21T01:43:44.295Z,94.80
2017-10-21T01:46:12.265Z,94.60
2017-10-21T01:48:40.236Z,94.80
2017-10-21T01:51:08.102Z,94.80
2017-10-21T01:53:36.073Z,95.20
2017-10-21T01:56:04.042Z,95.80
2017-10-21T01:58:31.911Z,96.00
2017-10-21T02:00:59.782Z,95.60
2017-10-21T02:03:27.749Z,95.30
2017-10-21T02:05:55.618Z,95.20
2017-10-21T02:08:23.483Z,95.50
2017-10-21T02:10:51.352Z,95.60
2017-10-21T02:13:19.220Z,95.80
2017-10-21T02:15:47.086Z,95.20
2017-10-21T02:18:14.954Z,94.70
2017-10-21T02:20:42.922Z,94.50
2017-10-21T02:23:10.786Z,94.70
2017-10-21T02:25:38.655Z,94.90
2017-10-21T02:28:06.522Z,95.60
2017-10-21T02:30:34.390Z,95.70
2017-10-21T02:33:02.256Z,95.50
2017-10-21T02:35:30.124Z,95.30
2017-10-21T02:37:57.991Z,94.80
2017-10-21T02:40:25.859Z,94.90
2017-10-21T02:42:53.728Z,94.40
2017-10-21T02:45:21.594Z,94.20
2017-10-21T02:47:49.499Z,94.10
2017-10-21T02:50:18.147Z,94.30
2017-10-21T02:52:46.015Z,94.30
2017-10-21T02:55:13.885Z,94.20
2017-10-21T02:57:41.749Z,94.20
2017-10-21T03:00:09.616Z,94.20
2017-10-21T03:02:37.483Z,94.10
2017-10-21T03:05:05.454Z,94.00
2017-10-21T03:07:33.321Z,93.90
2017-10-21T03:10:01.188Z,93.80
2017-10-21T03:12:29.055Z,93.80
2017-10-21T03:14:57.537Z,93.80
2017-10-21T03:17:25.407Z,93.70
2017-10-21T03:19:53.276Z,93.70
2017-10-21T03:22:21.139Z,93.90
2017-10-21T03:24:49.007Z,94.00
2017-10-21T03:27:16.874Z,93.90
2017-10-21T03:29:44.741Z,94.00
2017-10-21T03:32:12.608Z,93.90
2017-10-21T03:34:40.476Z,94.40
2017-10-21T03:37:08.446Z,94.70
2017-10-21T03:39:36.321Z,94.90
2017-10-21T03:42:04.180Z,94.70
2017-10-21T03:44:32.047Z,95.80
2017-10-21T03:46:59.915Z,96.20
2017-10-21T03:49:27.787Z,96.20
2017-10-21T03:51:55.649Z,96.10
2017-10-21T03:54:23.517Z,96.00
2017-10-21T03:56:51.384Z,96.00
2017-10-21T03:59:19.252Z,95.90
2017-10-21T04:01:47.118Z,95.70
2017-10-21T04:04:14.986Z,95.50
2017-10-21T04:06:42.853Z,95.30
2017-10-21T04:09:10.720Z,95.20
2017-10-21T04:11:38.588Z,95.20
2017-10-21T04:14:06.455Z,95.20
2017-10-21T04:16:34.322Z,95.20
2017-10-21T04:19:02.190Z,95.20
2017-10-21T04:21:30.159Z,95.20
2017-10-21T04:23:58.027Z,95.20
2017-10-21T04:26:25.895Z,95.30
2017-10-21T04:28:53.761Z,95.30
2017-10-21T04:31:21.628Z,95.30
2017-10-21T04:33:50.827Z,95.30
2017-10-21T04:36:18.899Z,95.30
2017-10-21T04:38:46.767Z,95.30
2017-10-21T04:41:14.634Z,95.40
2017-10-21T04:43:42.507Z,95.40
2017-10-21T04:46:10.369Z,95.40
2017-10-21T04:48:38.235Z,95.50
2017-10-21T04:51:06.104Z,95.50
2017-10-21T04:53:33.998Z,95.60
2017-10-21T04:56:01.837Z,95.70
2017-10-21T04:58:29.705Z,96.00
2017-10-21T05:00:57.579Z,95.80
2017-10-21T05:03:25.372Z,95.30
2017-10-21T05:05:54.029Z,95.40
2017-10-21T05:08:22.813Z,95.30
2017-10-21T05:10:50.680Z,95.30
2017-10-21T05:13:18.548Z,95.30
2017-10-21T05:15:46.422Z,95.20
2017-10-21T05:18:14.285Z,95.10
2017-10-21T05:21:15.179Z,94.90
2017-10-21T05:23:45.644Z,94.60
2017-10-21T05:26:16.709Z,94.90
2017-10-21T05:28:46.696Z,95.40
2017-10-21T05:31:15.434Z,95.50
2017-10-21T05:33:44.087Z,95.70
2017-10-21T05:36:11.954Z,95.70
2017-10-21T05:38:39.819Z,96.30
2017-10-21T05:41:07.616Z,96.30
2017-10-21T05:43:35.451Z,95.80
2017-10-21T05:46:03.324Z,95.50
2017-10-21T05:48:31.186Z,95.40
2017-10-21T05:50:59.054Z,95.40
2017-10-21T05:53:26.920Z,95.30
2017-10-21T05:55:54.789Z,95.20
2017-10-21T05:58:22.656Z,95.10
2017-10-21T06:00:50.421Z,94.90
2017-10-21T06:03:18.185Z,94.90
2017-10-21T06:05:46.052Z,94.90
2017-10-21T06:08:13.920Z,95.00
2017-10-21T06:10:41.788Z,94.60
2017-10-21T06:13:09.654Z,94.60
2017-10-21T06:15:37.521Z,95.30
2017-10-21T06:18:05.389Z,95.70
2017-10-21T06:20:33.256Z,96.20
2017-10-21T06:23:01.123Z,96.20
2017-10-21T06:25:28.990Z,96.00
2017-10-21T06:27:56.858Z,95.80
2017-10-21T06:30:24.725Z,95.80
2017-10-21T06:32:52.593Z,95.90
2017-10-21T06:35:20.461Z,96.20
2017-10-21T06:37:48.327Z,96.20
2017-10-21T06:40:16.195Z,96.00
2017-10-21T06:42:44.062Z,96.20
2017-10-21T06:45:11.929Z,96.30
2017-10-21T06:47:39.797Z,96.60
2017-10-21T06:50:07.664Z,97.10
2017-10-21T06:52:35.531Z,97.20
2017-10-21T06:55:03.401Z,97.20
2017-10-21T06:57:31.266Z,96.90
2017-10-21T06:59:59.134Z,96.40
2017-10-21T07:02:27.000Z,96.00
2017-10-21T07:04:54.873Z,95.80
2017-10-21T07:07:22.754Z,95.70
2017-10-21T07:09:50.602Z,95.60
2017-10-21T07:12:18.470Z,95.50
2017-10-21T07:14:46.337Z,95.50
2017-10-21T07:17:14.204Z,95.80
2017-10-21T07:19:42.071Z,95.80
2017-10-21T07:22:09.939Z,95.80
2017-10-21T07:24:37.806Z,95.70
2017-10-21T07:27:05.673Z,96.30
2017-10-21T07:29:33.541Z,96.70
2017-10-21T07:32:01.410Z,97.00
2017-10-21T07:34:29.278Z,97.10
2017-10-21T07:36:57.144Z,97.30
2017-10-21T07:39:25.010Z,97.30
2017-10-21T07:41:52.878Z,97.20
2017-10-21T07:44:20.746Z,97.30
2017-10-21T07:46:48.611Z,97.50
2017-10-21T07:49:16.406Z,97.40
2017-10-21T07:51:44.347Z,97.20
2017-10-21T07:54:12.624Z,97.00
2017-10-21T07:56:40.491Z,96.80
2017-10-21T07:59:08.359Z,96.40
2017-10-21T08:01:36.225Z,96.30
2017-10-21T08:04:04.093Z,96.30
2017-10-21T08:06:31.960Z,96.20
2017-10-21T08:08:59.827Z,96.20
2017-10-21T08:11:27.695Z,96.00
2017-10-21T08:13:55.563Z,95.80
2017-10-21T08:16:23.430Z,95.90
2017-10-21T08:18:51.297Z,95.20
2017-10-21T08:21:19.164Z,95.30
2017-10-21T08:23:47.031Z,95.00
2017-10-21T08:26:14.900Z,95.00
2017-10-21T08:28:42.770Z,94.80
2017-10-21T08:31:10.637Z,94.10
2017-10-21T08:33:38.503Z,94.60
2017-10-21T08:36:06.376Z,94.20
2017-10-21T08:38:34.142Z,93.00
2017-10-21T08:41:01.879Z,90.20
2017-10-21T08:43:29.693Z,82.30
2017-10-21T08:45:58.224Z,69.70
2017-10-21T08:48:25.982Z,69.70
2017-10-21T08:50:53.705Z,66.00
2017-10-21T08:53:22.243Z,58.70
2017-10-21T08:55:49.965Z,58.60
2017-10-21T08:58:17.789Z,56.90
2017-10-21T09:00:45.656Z,55.20
2017-10-21T09:03:13.654Z,56.20
2017-10-21T09:05:41.705Z,57.20
2017-10-21T09:08:09.565Z,59.80
2017-10-21T09:10:37.637Z,63.80
2017-10-21T09:13:05.814Z,66.90
2017-10-21T09:15:38.401Z,70.40
2017-10-21T09:18:06.359Z,72.60
2017-10-21T09:20:34.228Z,75.30
2017-10-21T09:23:02.094Z,78.20
2017-10-21T09:25:29.960Z,81.00
2017-10-21T09:27:57.828Z,82.90
2017-10-21T09:30:25.695Z,84.40
2017-10-21T09:32:53.565Z,85.70
2017-10-21T09:35:21.431Z,87.00
2017-10-21T09:37:49.297Z,86.10
2017-10-21T09:40:17.166Z,87.70
2017-10-21T09:42:45.032Z,85.90
2017-10-21T09:45:12.899Z,86.60
2017-10-21T09:47:40.766Z,81.40
2017-10-21T09:50:09.454Z,71.00
2017-10-21T09:52:37.323Z,71.10
2017-10-21T09:55:05.188Z,73.00
2017-10-21T09:57:33.055Z,75.10
2017-10-21T10:00:00.922Z,77.10
2017-10-21T10:02:28.790Z,78.70
2017-10-21T10:04:56.587Z,80.20
2017-10-21T10:07:25.240Z,84.90
2017-10-21T10:09:53.108Z,84.90
2017-10-21T10:12:20.976Z,87.40
2017-10-21T10:14:48.946Z,89.10
2017-10-21T10:17:16.813Z,89.70
2017-10-21T10:19:44.606Z,90.30
2017-10-21T10:22:12.444Z,90.80
2017-10-21T10:24:40.414Z,90.70
2017-10-21T10:27:08.282Z,91.10
2017-10-21T10:29:36.150Z,91.40
2017-10-21T10:32:04.017Z,91.40
2017-10-21T10:34:31.884Z,91.70
2017-10-21T10:36:59.751Z,91.90
2017-10-21T10:39:27.619Z,92.00
2017-10-21T10:41:55.489Z,91.60
2017-10-21T10:44:23.359Z,91.60
2017-10-21T10:46:51.221Z,91.90
2017-10-21T10:49:19.088Z,91.30
2017-10-21T10:51:46.956Z,91.40
2017-10-21T10:54:14.823Z,91.60
2017-10-21T10:56:42.698Z,91.20
2017-10-21T10:59:10.557Z,91.30
2017-10-21T11:01:38.425Z,91.40
2017-10-21T11:04:06.292Z,91.80
2017-10-21T11:06:34.159Z,91.80
2017-10-21T11:09:02.026Z,92.10
2017-10-21T11:11:29.894Z,92.30
2017-10-21T11:13:57.969Z,92.30
2017-10-21T11:16:26.654Z,92.70
2017-10-21T11:18:54.520Z,92.70
2017-10-21T11:21:22.393Z,92.70
2017-10-21T11:23:50.254Z,92.80
2017-10-21T11:26:18.759Z,92.90
2017-10-21T11:28:46.483Z,92.90
2017-10-21T11:31:14.369Z,93.00
2017-10-21T11:33:42.235Z,92.90
2017-10-21T11:36:10.104Z,93.00
2017-10-21T11:38:37.823Z,93.40
2017-10-21T11:41:05.638Z,93.40
2017-10-21T11:43:33.504Z,93.10
2017-10-21T11:46:01.372Z,93.90
2017-10-21T11:48:29.338Z,93.60
2017-10-21T11:50:57.107Z,93.60
2017-10-21T11:53:25.316Z,93.70
2017-10-21T11:55:53.091Z,93.60
2017-10-21T11:58:21.616Z,94.00
2017-10-21T12:00:49.493Z,94.00
2017-10-21T12:03:17.240Z,94.00
2017-10-21T12:05:45.126Z,93.90
2017-10-21T12:08:12.993Z,93.80
2017-10-21T12:10:40.863Z,93.90
2017-10-21T12:13:08.581Z,93.60
2017-10-21T12:15:36.394Z,93.90
2017-10-21T12:18:04.144Z,93.80
2017-10-21T12:20:31.920Z,94.10
2017-10-21T12:22:59.792Z,94.40
2017-10-21T12:25:27.653Z,94.40
2017-10-21T12:27:55.366Z,94.70
2017-10-21T12:30:23.858Z,94.80
2017-10-21T12:32:51.665Z,94.80
2017-10-21T12:35:19.395Z,94.70
2017-10-21T12:37:47.124Z,95.20
2017-10-21T12:40:15.677Z,95.00
2017-10-21T12:42:43.544Z,94.90
2017-10-21T12:45:11.412Z,95.30
2017-10-21T12:47:39.139Z,95.40
2017-10-21T12:50:06.943Z,95.10
2017-10-21T12:52:34.817Z,95.40
2017-10-21T12:55:02.676Z,95.50
2017-10-21T12:57:30.547Z,95.70
2017-10-21T12:59:58.410Z,95.70
2017-10-21T13:02:26.278Z,95.50
2017-10-21T13:04:54.003Z,95.80
2017-10-21T13:07:21.911Z,95.80
2017-10-21T13:09:49.710Z,95.80
2017-10-21T13:12:18.215Z,96.00
2017-10-21T13:14:46.031Z,96.00
2017-10-21T13:17:13.763Z,95.80
2017-10-21T13:19:41.508Z,96.10
2017-10-21T13:22:09.239Z,96.10
2017-10-21T13:24:36.969Z,96.30
2017-10-21T13:27:04.848Z,96.00
2017-10-21T13:29:32.582Z,96.30
2017-10-21T13:32:00.347Z,96.10
2017-10-21T13:34:28.089Z,95.60
2017-10-21T13:36:56.728Z,95.60
2017-10-21T13:39:24.595Z,95.60
2017-10-21T13:41:52.462Z,95.80
2017-10-21T13:44:20.331Z,95.70
2017-10-21T13:46:48.071Z,95.40
2017-10-21T13:49:15.801Z,95.60
2017-10-21T13:51:44.443Z,95.50
2017-10-21T13:54:12.979Z,95.60
2017-10-21T13:56:40.728Z,95.60
2017-10-21T13:59:09.227Z,95.80
2017-10-21T14:01:39.184Z,95.70
2017-10-21T14:04:07.840Z,95.80
2017-10-21T14:06:35.743Z,95.80
2017-10-21T14:09:05.114Z,95.80
2017-10-21T14:11:33.088Z,96.00
2017-10-21T14:14:01.299Z,95.70
2017-10-21T14:16:29.158Z,96.00
2017-10-21T14:18:56.923Z,95.70
2017-10-21T14:21:24.650Z,95.60
2017-10-21T14:23:52.376Z,95.00
2017-10-21T14:26:20.223Z,94.60
2017-10-21T14:28:48.084Z,94.60
2017-10-21T14:31:15.953Z,94.50
2017-10-21T14:33:43.819Z,94.60
2017-10-21T14:36:11.689Z,94.70
2017-10-21T14:38:39.414Z,94.70
2017-10-21T14:41:07.178Z,94.90
2017-10-21T14:43:34.898Z,94.90
2017-10-21T14:46:03.567Z,94.70
2017-10-21T14:48:31.433Z,94.70
2017-10-21T14:50:59.303Z,94.90
2017-10-21T14:53:27.167Z,95.00
2017-10-21T14:55:55.035Z,95.30
2017-10-21T14:58:22.907Z,95.40
2017-10-21T15:00:50.775Z,95.40
2017-10-21T15:03:18.639Z,95.40
2017-10-21T15:05:46.509Z,95.20
2017-10-21T15:08:14.383Z,95.00
2017-10-21T15:10:42.245Z,95.00
2017-10-21T15:13:10.217Z,94.90
2017-10-21T15:15:38.078Z,94.60
2017-10-21T15:18:05.945Z,94.40
2017-10-21T15:20:33.812Z,94.40
2017-10-21T15:23:01.679Z,94.40
2017-10-21T15:25:29.546Z,94.40
2017-10-21T15:27:57.413Z,94.40
2017-10-21T15:30:25.281Z,94.50
2017-10-21T15:32:52.999Z,94.50
2017-10-21T15:35:20.810Z,94.60
2017-10-21T15:37:48.677Z,94.70
2017-10-21T15:40:16.390Z,94.90
2017-10-21T15:42:45.027Z,95.00
2017-10-21T15:45:12.895Z,95.00
2017-10-21T15:47:41.479Z,95.00
2017-10-21T15:50:09.345Z,95.00
2017-10-21T15:52:37.213Z,95.00
2017-10-21T15:55:05.080Z,95.00
2017-10-21T15:57:32.947Z,95.00
2017-10-21T16:00:00.814Z,94.90
2017-10-21T16:02:28.687Z,94.70
2017-10-21T16:04:56.550Z,94.40
2017-10-21T16:07:24.416Z,94.60
2017-10-21T16:09:54.363Z,94.40
2017-10-21T16:12:22.307Z,94.30
2017-10-21T16:14:50.024Z,94.50
2017-10-21T16:17:18.139Z,94.50
2017-10-21T16:19:46.108Z,94.40
2017-10-21T16:22:14.897Z,94.40
2017-10-21T16:24:42.764Z,94.40
2017-10-21T16:27:10.632Z,94.50
2017-10-21T16:29:38.499Z,94.50
2017-10-21T16:32:06.367Z,94.10
2017-10-21T16:34:34.241Z,93.90
2017-10-21T16:37:02.103Z,93.90
2017-10-21T16:39:29.971Z,93.90
2017-10-21T16:41:57.836Z,94.00
2017-10-21T16:44:25.704Z,93.90
2017-10-21T16:46:53.570Z,94.00
2017-10-21T16:49:21.438Z,93.90
2017-10-21T16:51:49.203Z,93.90
2017-10-21T16:54:17.070Z,93.40
2017-10-21T16:56:44.936Z,93.30
2017-10-21T16:59:12.809Z,93.10
2017-10-21T17:01:40.672Z,92.90
2017-10-21T17:04:08.424Z,93.40
2017-10-21T17:06:36.304Z,94.00
2017-10-21T17:09:04.273Z,94.30
2017-10-21T17:11:32.142Z,94.50
2017-10-21T17:14:00.009Z,95.20
2017-10-21T17:16:27.748Z,95.50
2017-10-21T17:18:55.474Z,95.70
2017-10-21T17:21:23.982Z,96.10
2017-10-21T17:23:52.017Z,96.10
2017-10-21T17:26:19.742Z,96.20
2017-10-21T17:28:47.624Z,96.30
2017-10-21T17:31:15.489Z,95.90
2017-10-21T17:33:43.356Z,95.80
2017-10-21T17:36:11.225Z,95.80
2017-10-21T17:38:39.091Z,95.90
2017-10-21T17:41:07.370Z,95.90
2017-10-21T17:43:36.259Z,96.00
2017-10-21T17:46:04.128Z,96.00
2017-10-21T17:48:31.929Z,95.80
2017-10-21T17:51:00.477Z,95.30
2017-10-21T17:53:30.223Z,95.30
2017-10-21T17:55:58.018Z,95.70
2017-10-21T17:58:25.739Z,95.50
2017-10-21T18:00:53.584Z,95.60
2017-10-21T18:03:21.515Z,95.70
2017-10-21T18:05:49.895Z,95.50
2017-10-21T18:08:19.029Z,95.20
2017-10-21T18:10:46.901Z,95.40
2017-10-21T18:13:14.783Z,95.60
2017-10-21T18:15:43.150Z,95.20
2017-10-21T18:18:11.967Z,95.50
2017-10-21T18:20:40.672Z,95.80
2017-10-21T18:23:08.825Z,95.80
2017-10-21T18:25:37.575Z,96.20
2017-10-21T18:28:05.289Z,96.20
2017-10-21T18:30:33.936Z,96.60
2017-10-21T18:33:01.802Z,96.60
2017-10-21T18:35:29.675Z,96.60
2017-10-21T18:37:57.555Z,96.50
2017-10-21T18:40:25.400Z,96.50
2017-10-21T18:42:53.267Z,96.40
2017-10-21T18:45:21.135Z,96.30
2017-10-21T18:47:49.002Z,96.30
2017-10-21T18:50:16.870Z,96.40
2017-10-21T18:52:44.737Z,96.30
2017-10-21T18:55:12.536Z,96.50
2017-10-21T18:57:41.015Z,96.40
2017-10-21T19:00:09.494Z,96.90
2017-10-21T19:02:37.210Z,96.70
2017-10-21T19:05:04.929Z,96.40
2017-10-21T19:07:33.579Z,96.30
2017-10-21T19:10:01.446Z,96.30
2017-10-21T19:12:29.313Z,96.70
2017-10-21T19:14:57.189Z,96.40
2017-10-21T19:17:24.927Z,96.60
2017-10-21T19:19:52.658Z,96.60
2017-10-21T19:22:21.150Z,96.80
2017-10-21T19:24:48.956Z,96.70
2017-10-21T19:27:16.824Z,96.50
2017-10-21T19:29:44.691Z,96.50
2017-10-21T19:32:12.559Z,96.80
2017-10-21T19:34:40.425Z,96.70
2017-10-21T19:37:08.292Z,96.60
2017-10-21T19:39:36.160Z,96.50
2017-10-21T19:42:04.027Z,96.20
2017-10-21T19:44:31.914Z,96.60
2017-10-21T19:46:59.652Z,96.40
2017-10-21T19:49:27.393Z,96.60
2017-10-21T19:51:55.190Z,96.70
2017-10-21T19:54:23.057Z,96.10
2017-10-21T19:56:50.925Z,96.20
2017-10-21T19:59:18.792Z,96.00
2017-10-21T20:01:46.591Z,96.10
2017-10-21T20:04:15.244Z,96.00
2017-10-21T20:06:43.115Z,96.00
2017-10-21T20:09:10.978Z,96.00
2017-10-21T20:11:38.770Z,96.10
2017-10-21T20:14:06.610Z,96.10
2017-10-21T20:16:34.483Z,96.00
2017-10-21T20:19:02.345Z,96.30
2017-10-21T20:21:30.212Z,96.40
2017-10-21T20:23:57.942Z,96.40
2017-10-21T20:26:25.680Z,96.10
2017-10-21T20:28:54.194Z,96.40
2017-10-21T20:31:21.915Z,96.40
2017-10-21T20:33:49.771Z,96.60
2017-10-21T20:36:17.498Z,96.90
2017-10-21T20:38:45.255Z,97.00
2017-10-21T20:41:13.019Z,97.10
2017-10-21T20:43:40.916Z,97.30
2017-10-21T20:46:08.691Z,97.30
2017-10-21T20:48:36.467Z,97.40
2017-10-21T20:51:04.194Z,97.50
2017-10-21T20:53:31.979Z,97.40
2017-10-21T20:55:59.708Z,97.40
2017-10-21T20:58:27.462Z,97.30
2017-10-21T21:00:55.194Z,97.40
2017-10-21T21:03:22.964Z,97.40
2017-10-21T21:05:51.618Z,97.50
2017-10-21T21:08:19.753Z,97.50
2017-10-21T21:10:47.487Z,97.50
2017-10-21T21:13:15.982Z,97.70
2017-10-21T21:15:44.474Z,97.80
2017-10-21T21:18:12.190Z,97.80
2017-10-21T21:20:39.944Z,97.90
2017-10-21T21:23:07.817Z,97.80
2017-10-21T21:25:35.690Z,97.70
2017-10-21T21:28:03.551Z,97.60
2017-10-21T21:30:31.276Z,97.70
2017-10-21T21:32:58.990Z,97.70
2017-10-21T21:35:26.850Z,97.50
2017-10-21T21:37:54.716Z,97.40
2017-10-21T21:40:22.581Z,97.30
2017-10-21T21:42:50.447Z,97.60
2017-10-21T21:45:18.322Z,97.60
2017-10-21T21:47:46.186Z,97.60
2017-10-21T21:50:14.068Z,97.50
2017-10-21T21:52:41.919Z,97.40
2017-10-21T21:55:09.639Z,97.20
2017-10-21T21:57:37.446Z,97.50
2017-10-21T22:00:05.316Z,97.60
2017-10-21T22:02:33.021Z,97.80
2017-10-21T22:05:01.500Z,97.90
2017-10-21T22:07:29.978Z,98.00
2017-10-21T22:09:58.629Z,98.10
2017-10-21T22:12:26.341Z,98.00
2017-10-21T22:14:54.975Z,97.90
2017-10-21T22:17:22.843Z,97.90
2017-10-21T22:19:50.713Z,97.90
2017-10-21T22:22:18.578Z,98.10
2017-10-21T22:24:46.444Z,98.10
2017-10-21T22:27:14.312Z,98.10
2017-10-21T22:29:42.031Z,98.00
2017-10-21T22:32:09.739Z,97.80
2017-10-21T22:34:37.606Z,97.70
2017-10-21T22:37:05.349Z,97.60
2017-10-21T22:39:33.239Z,97.50
2017-10-21T22:42:01.106Z,97.50
2017-10-21T22:44:28.973Z,97.60
2017-10-21T22:46:56.697Z,97.50
2017-10-21T22:49:24.503Z,97.70
2017-10-21T22:51:52.371Z,97.70
2017-10-21T22:54:20.238Z,97.70
2017-10-21T22:56:48.105Z,97.70
2017-10-21T22:59:15.973Z,97.80
2017-10-21T23:01:43.843Z,97.80
2017-10-21T23:04:11.707Z,97.90
2017-10-21T23:06:39.574Z,97.90
2017-10-21T23:09:07.442Z,97.80
2017-10-21T23:11:35.308Z,97.80
2017-10-21T23:14:03.107Z,97.80
2017-10-21T23:16:31.761Z,98.10
2017-10-21T23:18:59.628Z,98.10
2017-10-21T23:21:27.496Z,98.00
2017-10-21T23:23:55.363Z,98.10
2017-10-21T23:26:23.244Z,98.00
2017-10-21T23:28:51.097Z,97.80
2017-10-21T23:31:18.890Z,97.70
2017-10-21T23:33:46.730Z,97.80
2017-10-21T23:36:14.597Z,97.70
2017-10-21T23:38:42.364Z,97.80
2017-10-21T23:41:10.162Z,97.80
2017-10-21T23:43:38.814Z,97.90
2017-10-21T23:46:06.680Z,97.90
2017-10-21T23:48:34.399Z,97.90
2017-10-21T23:51:02.160Z,97.90
2017-10-21T23:53:29.883Z,97.90
2017-10-21T23:55:57.600Z,97.70
2017-10-21T23:58:25.334Z,97.70
